Brooks City Base, Texas
Current Conditions -  °F | °C
As of 9:53 PM on Friday 24 Oct 2014 (Local Time) from KSSF Reporting Station
Clear Clear  
Wind Chill: 73°   Ceiling: Unl
Heat Index: 73°   Visibility: 10mi
Dew Point: 60°   Wind: 3mph
Humidity: 64%   Direction: 120°ESE
Pressure: 30.11"   Gusts: NA
Location:  29.3423°N, 98.4394°W
Report Text: KSSF 250253Z 12003KT 10SM CLR 23/16 A3011 RMK AO2 SLP188 T02280156 51015
Loading
Personal Weather Stations






























Interactive Weather Map
Tropical Storm Tracking
New forecast layout! Learn more

10-Day Weather Forecast

Advertisements
Track Severe Weather on mobile